sensor_id;sensor_type;location;lat;lon;timestamp;pressure;altitude;pressure_sealevel;temperature;humidity
8160;BME280;27404;52.398;9.646;2022-07-12T00:01:51;101707.22;;;13.48;100.00
8160;BME280;27404;52.398;9.646;2022-07-12T00:04:17;101711.78;;;13.55;100.00
8160;BME280;27404;52.398;9.646;2022-07-12T00:06:43;101718.06;;;13.62;100.00
8160;BME280;27404;52.398;9.646;2022-07-12T00:09:08;101709.34;;;13.65;100.00
8160;BME280;27404;52.398;9.646;2022-07-12T00:11:37;101710.31;;;13.71;100.00
8160;BME280;27404;52.398;9.646;2022-07-12T00:14:03;101708.19;;;13.73;100.00
8160;BME280;27404;52.398;9.646;2022-07-12T00:16:29;101700.94;;;13.79;100.00
8160;BME280;27404;52.398;9.646;2022-07-12T00:18:55;101703.44;;;13.80;100.00
8160;BME280;27404;52.398;9.646;2022-07-12T00:21:21;101705.59;;;13.78;100.00
8160;BME280;27404;52.398;9.646;2022-07-12T00:23:46;101707.25;;;13.79;100.00
8160;BME280;27404;52.398;9.646;2022-07-12T00:26:12;101708.34;;;13.78;100.00
8160;BME280;27404;52.398;9.646;2022-07-12T00:28:37;101721.25;;;13.77;100.00
8160;BME280;27404;52.398;9.646;2022-07-12T00:31:03;101720.19;;;13.79;100.00
8160;BME280;27404;52.398;9.646;2022-07-12T00:33:29;101715.50;;;13.79;100.00
8160;BME280;27404;52.398;9.646;2022-07-12T00:35:55;101715.28;;;13.81;100.00
8160;BME280;27404;52.398;9.646;2022-07-12T00:38:20;101714.84;;;13.84;100.00
8160;BME280;27404;52.398;9.646;2022-07-12T00:40:46;101706.59;;;13.84;100.00
8160;BME280;27404;52.398;9.646;2022-07-12T00:43:12;101699.41;;;13.83;100.00
8160;BME280;27404;52.398;9.646;2022-07-12T00:45:37;101712.09;;;13.84;100.00
8160;BME280;27404;52.398;9.646;2022-07-12T00:48:03;101697.28;;;13.85;100.00
8160;BME280;27404;52.398;9.646;2022-07-12T00:50:29;101697.28;;;13.85;100.00
8160;BME280;27404;52.398;9.646;2022-07-12T00:52:55;101693.66;;;13.84;100.00
8160;BME280;27404;52.398;9.646;2022-07-12T00:55:23;101697.28;;;13.85;100.00
8160;BME280;27404;52.398;9.646;2022-07-12T00:57:49;101703.84;;;13.84;100.00
8160;BME280;27404;52.398;9.646;2022-07-12T01:00:23;101709.09;;;13.85;100.00
8160;BME280;27404;52.398;9.646;2022-07-12T01:02:50;101699.78;;;13.86;100.00
8160;BME280;27404;52.398;9.646;2022-07-12T01:05:17;101698.94;;;13.86;100.00
8160;BME280;27404;52.398;9.646;2022-07-12T01:07:42;101696.56;;;13.89;100.00
8160;BME280;27404;52.398;9.646;2022-07-12T01:10:09;101696.94;;;13.93;100.00
8160;BME280;27404;52.398;9.646;2022-07-12T01:12:34;101700.53;;;13.94;100.00
8160;BME280;27404;52.398;9.646;2022-07-12T01:15:01;101698.38;;;13.96;100.00
8160;BME280;27404;52.398;9.646;2022-07-12T01:17:28;101701.97;;;13.96;100.00
8160;BME280;27404;52.398;9.646;2022-07-12T01:19:55;101696.25;;;13.98;100.00
8160;BME280;27404;52.398;9.646;2022-07-12T01:22:32;101691.56;;;13.98;100.00
8160;BME280;27404;52.398;9.646;2022-07-12T01:25:03;101692.66;;;13.97;100.00
8160;BME280;27404;52.398;9.646;2022-07-12T01:27:29;101695.63;;;13.96;100.00
8160;BME280;27404;52.398;9.646;2022-07-12T01:29:55;101694.56;;;13.97;100.00
8160;BME280;27404;52.398;9.646;2022-07-12T01:32:21;101694.56;;;13.97;100.00
8160;BME280;27404;52.398;9.646;2022-07-12T01:34:54;101695.63;;;13.96;100.00
8160;BME280;27404;52.398;9.646;2022-07-12T01:37:21;101693.72;;;13.96;100.00
8160;BME280;27404;52.398;9.646;2022-07-12T01:39:48;101692.44;;;13.99;100.00
8160;BME280;27404;52.398;9.646;2022-07-12T01:42:14;101693.25;;;13.99;100.00
8160;BME280;27404;52.398;9.646;2022-07-12T01:44:40;101683.09;;;14.00;100.00
8160;BME280;27404;52.398;9.646;2022-07-12T01:47:06;101689.22;;;14.02;100.00
8160;BME280;27404;52.398;9.646;2022-07-12T01:49:32;101690.91;;;14.03;100.00
8160;BME280;27404;52.398;9.646;2022-07-12T01:51:58;101690.66;;;14.04;100.00
8160;BME280;27404;52.398;9.646;2022-07-12T01:54:27;101692.56;;;14.04;100.00
8160;BME280;27404;52.398;9.646;2022-07-12T01:56:54;101691.25;;;14.06;100.00
8160;BME280;27404;52.398;9.646;2022-07-12T01:59:20;101691.84;;;14.09;100.00
8160;BME280;27404;52.398;9.646;2022-07-12T02:01:45;101682.78;;;14.08;100.00
8160;BME280;27404;52.398;9.646;2022-07-12T02:04:11;101680.03;;;14.08;100.00
8160;BME280;27404;52.398;9.646;2022-07-12T02:06:38;101678.34;;;14.07;100.00
8160;BME280;27404;52.398;9.646;2022-07-12T02:09:04;101676.44;;;14.07;100.00
8160;BME280;27404;52.398;9.646;2022-07-12T02:11:30;101677.28;;;14.08;100.00
8160;BME280;27404;52.398;9.646;2022-07-12T02:13:56;101678.34;;;14.07;100.00
8160;BME280;27404;52.398;9.646;2022-07-12T02:16:21;101678.34;;;14.07;100.00
8160;BME280;27404;52.398;9.646;2022-07-12T02:18:47;101685.53;;;14.08;100.00
8160;BME280;27404;52.398;9.646;2022-07-12T02:21:12;101680.03;;;14.08;100.00
8160;BME280;27404;52.398;9.646;2022-07-12T02:23:38;101672.59;;;14.09;100.00
8160;BME280;27404;52.398;9.646;2022-07-12T02:26:03;101684.22;;;14.11;100.00
8160;BME280;27404;52.398;9.646;2022-07-12T02:28:29;101675.16;;;14.10;100.00
8160;BME280;27404;52.398;9.646;2022-07-12T02:30:55;101673.22;;;14.11;100.00
8160;BME280;27404;52.398;9.646;2022-07-12T02:33:20;101677.63;;;14.12;100.00
8160;BME280;27404;52.398;9.646;2022-07-12T02:35:46;101676.81;;;14.11;100.00
8160;BME280;27404;52.398;9.646;2022-07-12T02:38:11;101680.19;;;14.13;100.00
8160;BME280;27404;52.398;9.646;2022-07-12T02:40:37;101683.75;;;14.14;100.00
8160;BME280;27404;52.398;9.646;2022-07-12T02:43:23;101687.34;;;14.14;100.00
8160;BME280;27404;52.398;9.646;2022-07-12T02:45:50;101693.94;;;14.13;100.00
8160;BME280;27404;52.398;9.646;2022-07-12T02:48:16;101690.94;;;14.15;100.00
8160;BME280;27404;52.398;9.646;2022-07-12T02:50:42;101691.78;;;14.15;100.00
8160;BME280;27404;52.398;9.646;2022-07-12T02:53:09;101690.94;;;14.15;100.00
8160;BME280;27404;52.398;9.646;2022-07-12T02:55:35;101694.75;;;14.14;100.00
8160;BME280;27404;52.398;9.646;2022-07-12T02:58:01;101703.00;;;14.14;100.00
8160;BME280;27404;52.398;9.646;2022-07-12T03:00:27;101704.91;;;14.13;100.00
8160;BME280;27404;52.398;9.646;2022-07-12T03:02:53;101706.59;;;14.14;100.00
8160;BME280;27404;52.398;9.646;2022-07-12T03:05:18;101711.63;;;14.17;100.00
8160;BME280;27404;52.398;9.646;2022-07-12T03:07:44;101712.47;;;14.18;100.00
8160;BME280;27404;52.398;9.646;2022-07-12T03:10:09;101716.06;;;14.18;100.00
8160;BME280;27404;52.398;9.646;2022-07-12T03:12:36;101710.56;;;14.18;100.00
8160;BME280;27404;52.398;9.646;2022-07-12T03:15:02;101716.66;;;14.20;100.00
8160;BME280;27404;52.398;9.646;2022-07-12T03:17:27;101723.25;;;14.19;100.00
8160;BME280;27404;52.398;9.646;2022-07-12T03:19:52;101724.06;;;14.20;100.00
8160;BME280;27404;52.398;9.646;2022-07-12T03:22:18;101733.63;;;14.17;100.00
8160;BME280;27404;52.398;9.646;2022-07-12T03:24:43;101735.31;;;14.18;100.00
8160;BME280;27404;52.398;9.646;2022-07-12T03:27:09;101741.41;;;14.20;100.00
8160;BME280;27404;52.398;9.646;2022-07-12T03:29:35;101742.25;;;14.21;100.00
8160;BME280;27404;52.398;9.646;2022-07-12T03:32:01;101750.28;;;14.23;100.00
8160;BME280;27404;52.398;9.646;2022-07-12T03:34:26;101744.53;;;14.24;100.00
8160;BME280;27404;52.398;9.646;2022-07-12T03:36:52;101741.53;;;14.26;100.00
8160;BME280;27404;52.398;9.646;2022-07-12T03:39:17;101747.88;;;14.26;100.00
8160;BME280;27404;52.398;9.646;2022-07-12T03:41:43;101752.06;;;14.29;100.00
8160;BME280;27404;52.398;9.646;2022-07-12T03:44:08;101754.81;;;14.29;100.00
8160;BME280;27404;52.398;9.646;2022-07-12T03:46:33;101752.06;;;14.29;100.00
8160;BME280;27404;52.398;9.646;2022-07-12T03:48:59;101755.22;;;14.32;100.00
8160;BME280;27404;52.398;9.646;2022-07-12T03:51:25;101750.78;;;14.31;100.00
8160;BME280;27404;52.398;9.646;2022-07-12T03:53:51;101755.22;;;14.32;100.00
8160;BME280;27404;52.398;9.646;2022-07-12T03:56:16;101767.03;;;14.33;100.00
8160;BME280;27404;52.398;9.646;2022-07-12T03:59:14;101763.59;;;14.38;100.00
8160;BME280;27404;52.398;9.646;2022-07-12T04:01:39;101768.03;;;14.39;100.00
8160;BME280;27404;52.398;9.646;2022-07-12T04:04:05;101761.69;;;14.38;100.00
8160;BME280;27404;52.398;9.646;2022-07-12T04:06:30;101767.56;;;14.42;100.00
8160;BME280;27404;52.398;9.646;2022-07-12T04:08:56;101768.16;;;14.44;100.00
8160;BME280;27404;52.398;9.646;2022-07-12T04:11:21;101768.78;;;14.46;100.00
8160;BME280;27404;52.398;9.646;2022-07-12T04:13:46;101775.72;;;14.48;100.00
8160;BME280;27404;52.398;9.646;2022-07-12T04:16:12;101772.88;;;14.55;100.00
8160;BME280;27404;52.398;9.646;2022-07-12T04:18:38;101773.84;;;14.61;100.00
8160;BME280;27404;52.398;9.646;2022-07-12T04:21:04;101776.59;;;14.61;100.00
8160;BME280;27404;52.398;9.646;2022-07-12T04:23:29;101776.13;;;14.64;100.00
8160;BME280;27404;52.398;9.646;2022-07-12T04:25:55;101778.03;;;14.63;100.00
8160;BME280;27404;52.398;9.646;2022-07-12T04:28:20;101780.31;;;14.66;100.00
8160;BME280;27404;52.398;9.646;2022-07-12T04:30:45;101789.81;;;14.71;100.00
8160;BME280;27404;52.398;9.646;2022-07-12T04:33:12;101785.16;;;14.71;100.00
8160;BME280;27404;52.398;9.646;2022-07-12T04:35:38;101785.50;;;14.75;100.00
8160;BME280;27404;52.398;9.646;2022-07-12T04:38:03;101782.53;;;14.76;100.00
8160;BME280;27404;52.398;9.646;2022-07-12T04:40:30;101783.50;;;14.82;100.00
8160;BME280;27404;52.398;9.646;2022-07-12T04:42:56;101792.97;;;14.86;100.00
8160;BME280;27404;52.398;9.646;2022-07-12T04:45:21;101787.09;;;14.94;100.00
8160;BME280;27404;52.398;9.646;2022-07-12T04:47:47;101785.66;;;14.92;100.00
8160;BME280;27404;52.398;9.646;2022-07-12T04:50:12;101789.38;;;14.98;100.00
8160;BME280;27404;52.398;9.646;2022-07-12T04:52:37;101790.09;;;14.93;100.00
8160;BME280;27404;52.398;9.646;2022-07-12T04:55:05;101803.97;;;14.98;100.00
8160;BME280;27404;52.398;9.646;2022-07-12T04:57:30;101801.34;;;15.03;100.00
8160;BME280;27404;52.398;9.646;2022-07-12T04:59:56;101798.59;;;15.03;100.00
8160;BME280;27404;52.398;9.646;2022-07-12T05:02:21;101796.44;;;15.05;100.00
8160;BME280;27404;52.398;9.646;2022-07-12T05:04:46;101802.81;;;15.06;100.00
8160;BME280;27404;52.398;9.646;2022-07-12T05:07:12;101794.44;;;15.13;100.00
8160;BME280;27404;52.398;9.646;2022-07-12T05:09:38;101794.69;;;15.23;100.00
8160;BME280;27404;52.398;9.646;2022-07-12T05:12:04;101798.88;;;15.37;100.00
8160;BME280;27404;52.398;9.646;2022-07-12T05:14:29;101803.91;;;15.40;100.00
8160;BME280;27404;52.398;9.646;2022-07-12T05:16:55;101796.25;;;15.43;100.00
8160;BME280;27404;52.398;9.646;2022-07-12T05:19:20;101797.69;;;15.45;100.00
8160;BME280;27404;52.398;9.646;2022-07-12T05:21:46;101794.22;;;15.50;100.00
8160;BME280;27404;52.398;9.646;2022-07-12T05:24:12;101798.03;;;15.61;100.00
8160;BME280;27404;52.398;9.646;2022-07-12T05:26:37;101801.00;;;15.83;100.00
8160;BME280;27404;52.398;9.646;2022-07-12T05:29:02;101809.66;;;15.87;100.00
8160;BME280;27404;52.398;9.646;2022-07-12T05:31:28;101813.72;;;15.72;100.00
8160;BME280;27404;52.398;9.646;2022-07-12T05:33:53;101812.16;;;15.76;100.00
8160;BME280;27404;52.398;9.646;2022-07-12T05:36:19;101816.00;;;15.87;100.00
8160;BME280;27404;52.398;9.646;2022-07-12T05:38:45;101812.03;;;15.71;100.00
8160;BME280;27404;52.398;9.646;2022-07-12T05:41:10;101807.59;;;15.94;100.00
8160;BME280;27404;52.398;9.646;2022-07-12T05:43:36;101813.91;;;16.18;100.00
8160;BME280;27404;52.398;9.646;2022-07-12T05:46:03;101812.09;;;16.53;100.00
8160;BME280;27404;52.398;9.646;2022-07-12T05:48:28;101813.53;;;16.72;100.00
8160;BME280;27404;52.398;9.646;2022-07-12T05:50:54;101813.03;;;17.05;100.00
8160;BME280;27404;52.398;9.646;2022-07-12T05:53:19;101798.28;;;16.99;100.00
8160;BME280;27404;52.398;9.646;2022-07-12T05:55:49;101800.28;;;17.21;100.00
8160;BME280;27404;52.398;9.646;2022-07-12T05:58:15;101788.66;;;17.75;100.00
8160;BME280;27404;52.398;9.646;2022-07-12T06:00:41;101800.91;;;18.51;96.44
8160;BME280;27404;52.398;9.646;2022-07-12T06:03:06;101805.94;;;19.14;90.77
8160;BME280;27404;52.398;9.646;2022-07-12T06:05:32;101810.41;;;19.58;87.67
8160;BME280;27404;52.398;9.646;2022-07-12T06:07:57;101810.84;;;19.88;83.05
8160;BME280;27404;52.398;9.646;2022-07-12T06:10:23;101807.44;;;20.29;80.18
8160;BME280;27404;52.398;9.646;2022-07-12T06:12:48;101810.34;;;20.80;76.75
8160;BME280;27404;52.398;9.646;2022-07-12T06:15:14;101802.81;;;21.33;71.19
8160;BME280;27404;52.398;9.646;2022-07-12T06:17:40;101810.84;;;21.55;70.25
8160;BME280;27404;52.398;9.646;2022-07-12T06:20:05;101811.91;;;21.85;66.16
8160;BME280;27404;52.398;9.646;2022-07-12T06:22:31;101824.31;;;22.18;63.35
8160;BME280;27404;52.398;9.646;2022-07-12T06:24:56;101822.38;;;22.09;62.25
8160;BME280;27404;52.398;9.646;2022-07-12T06:27:22;101821.66;;;21.72;62.96
8160;BME280;27404;52.398;9.646;2022-07-12T06:29:48;101820.06;;;21.35;66.54
8160;BME280;27404;52.398;9.646;2022-07-12T06:32:16;101825.63;;;21.35;68.79
8160;BME280;27404;52.398;9.646;2022-07-12T06:34:42;101822.28;;;21.43;65.83
8160;BME280;27404;52.398;9.646;2022-07-12T06:37:07;101825.31;;;21.41;65.50
8160;BME280;27404;52.398;9.646;2022-07-12T06:39:35;101832.25;;;21.70;64.02
8160;BME280;27404;52.398;9.646;2022-07-12T06:42:01;101830.03;;;21.72;65.35
8160;BME280;27404;52.398;9.646;2022-07-12T06:44:30;101827.53;;;21.65;65.59
8160;BME280;27404;52.398;9.646;2022-07-12T06:46:56;101824.38;;;22.03;62.87
8160;BME280;27404;52.398;9.646;2022-07-12T06:49:22;101827.03;;;22.24;59.00
8160;BME280;27404;52.398;9.646;2022-07-12T06:51:47;101824.13;;;23.59;54.76
8160;BME280;27404;52.398;9.646;2022-07-12T06:54:12;101821.69;;;26.46;43.22
8160;BME280;27404;52.398;9.646;2022-07-12T06:56:38;101827.97;;;26.15;43.19
8160;BME280;27404;52.398;9.646;2022-07-12T06:59:03;101825.97;;;25.88;43.90
8160;BME280;27404;52.398;9.646;2022-07-12T07:01:29;101838.44;;;26.97;41.31
8160;BME280;27404;52.398;9.646;2022-07-12T07:03:54;101834.19;;;27.31;39.86
8160;BME280;27404;52.398;9.646;2022-07-12T07:06:20;101833.69;;;25.82;41.57
8160;BME280;27404;52.398;9.646;2022-07-12T07:08:45;101816.28;;;25.38;43.66
8160;BME280;27404;52.398;9.646;2022-07-12T07:11:11;101824.41;;;24.68;44.80
8160;BME280;27404;52.398;9.646;2022-07-12T07:13:37;101823.56;;;24.30;46.73
8160;BME280;27404;52.398;9.646;2022-07-12T07:16:02;101825.75;;;24.52;47.54
8160;BME280;27404;52.398;9.646;2022-07-12T07:18:28;101825.81;;;25.37;45.80
8160;BME280;27404;52.398;9.646;2022-07-12T07:20:53;101828.53;;;25.42;45.95
8160;BME280;27404;52.398;9.646;2022-07-12T07:23:18;101830.22;;;24.34;46.30
8160;BME280;27404;52.398;9.646;2022-07-12T07:25:47;101829.38;;;23.60;49.30
8160;BME280;27404;52.398;9.646;2022-07-12T07:28:13;101823.06;;;23.20;50.64
8160;BME280;27404;52.398;9.646;2022-07-12T07:30:38;101821.63;;;23.28;51.47
8160;BME280;27404;52.398;9.646;2022-07-12T07:33:24;101831.75;;;23.77;48.79
8160;BME280;27404;52.398;9.646;2022-07-12T07:35:51;101829.19;;;24.05;48.83
8160;BME280;27404;52.398;9.646;2022-07-12T07:38:17;101838.63;;;26.27;42.08
8160;BME280;27404;52.398;9.646;2022-07-12T07:40:43;101830.25;;;27.64;38.28
8160;BME280;27404;52.398;9.646;2022-07-12T07:43:09;101830.63;;;28.20;38.86
8160;BME280;27404;52.398;9.646;2022-07-12T07:45:35;101829.75;;;28.02;39.83
8160;BME280;27404;52.398;9.646;2022-07-12T07:48:00;101822.16;;;27.62;37.90
8160;BME280;27404;52.398;9.646;2022-07-12T07:50:26;101819.38;;;26.85;40.51
8160;BME280;27404;52.398;9.646;2022-07-12T07:52:52;101823.41;;;25.31;44.41
8160;BME280;27404;52.398;9.646;2022-07-12T07:55:18;101823.59;;;24.49;46.98
8160;BME280;27404;52.398;9.646;2022-07-12T07:57:43;101813.75;;;24.70;47.80
8160;BME280;27404;52.398;9.646;2022-07-12T08:00:10;101820.38;;;24.94;47.28
8160;BME280;27404;52.398;9.646;2022-07-12T08:02:36;101815.78;;;24.65;47.72
8160;BME280;27404;52.398;9.646;2022-07-12T08:05:02;101819.13;;;24.48;48.40
8160;BME280;27404;52.398;9.646;2022-07-12T08:07:27;101821.81;;;24.15;48.81
8160;BME280;27404;52.398;9.646;2022-07-12T08:09:53;101818.19;;;24.14;49.48
8160;BME280;27404;52.398;9.646;2022-07-12T08:12:18;101804.03;;;24.05;49.72
8160;BME280;27404;52.398;9.646;2022-07-12T08:14:44;101814.66;;;23.55;51.98
8160;BME280;27404;52.398;9.646;2022-07-12T08:17:09;101815.25;;;23.22;52.44
8160;BME280;27404;52.398;9.646;2022-07-12T08:19:35;101815.59;;;22.81;53.16
8160;BME280;27404;52.398;9.646;2022-07-12T08:22:00;101808.50;;;22.93;55.35
8160;BME280;27404;52.398;9.646;2022-07-12T08:24:26;101816.63;;;22.90;57.09
8160;BME280;27404;52.398;9.646;2022-07-12T08:26:51;101812.97;;;23.29;54.75
8160;BME280;27404;52.398;9.646;2022-07-12T08:29:17;101807.69;;;23.28;55.96
8160;BME280;27404;52.398;9.646;2022-07-12T08:31:42;101807.22;;;23.15;51.79
8160;BME280;27404;52.398;9.646;2022-07-12T08:34:08;101809.34;;;22.94;51.96
8160;BME280;27404;52.398;9.646;2022-07-12T08:36:33;101800.66;;;23.01;53.03
8160;BME280;27404;52.398;9.646;2022-07-12T08:38:58;101803.84;;;22.44;59.73
8160;BME280;27404;52.398;9.646;2022-07-12T08:41:24;101789.84;;;21.99;58.67
8160;BME280;27404;52.398;9.646;2022-07-12T08:43:49;101796.19;;;22.15;58.54
8160;BME280;27404;52.398;9.646;2022-07-12T08:46:15;101788.16;;;22.08;58.47
8160;BME280;27404;52.398;9.646;2022-07-12T08:48:42;101795.56;;;22.23;63.46
8160;BME280;27404;52.398;9.646;2022-07-12T08:51:09;101795.69;;;22.58;61.97
8160;BME280;27404;52.398;9.646;2022-07-12T08:53:35;101794.59;;;22.54;61.64
8160;BME280;27404;52.398;9.646;2022-07-12T08:56:04;101803.69;;;22.65;59.56
8160;BME280;27404;52.398;9.646;2022-07-12T08:58:30;101814.03;;;22.64;59.51
8160;BME280;27404;52.398;9.646;2022-07-12T09:00:56;101805.06;;;22.72;59.27
8160;BME280;27404;52.398;9.646;2022-07-12T09:03:22;101813.47;;;23.02;56.64
8160;BME280;27404;52.398;9.646;2022-07-12T09:05:57;101810.88;;;23.11;56.48
8160;BME280;27404;52.398;9.646;2022-07-12T09:08:28;101817.88;;;23.08;58.01
8160;BME280;27404;52.398;9.646;2022-07-12T09:11:03;101821.28;;;23.00;55.39
8160;BME280;27404;52.398;9.646;2022-07-12T09:13:48;101815.50;;;23.20;55.03
8160;BME280;27404;52.398;9.646;2022-07-12T09:16:32;101814.19;;;23.47;53.63
8160;BME280;27404;52.398;9.646;2022-07-12T09:19:17;101812.16;;;23.24;53.50
8160;BME280;27404;52.398;9.646;2022-07-12T09:21:50;101808.44;;;23.04;54.66
8160;BME280;27404;52.398;9.646;2022-07-12T09:24:17;101810.47;;;22.93;53.72
8160;BME280;27404;52.398;9.646;2022-07-12T09:26:43;101805.47;;;22.90;55.50
8160;BME280;27404;52.398;9.646;2022-07-12T09:29:10;101795.78;;;22.37;56.99
8160;BME280;27404;52.398;9.646;2022-07-12T09:31:43;101796.03;;;22.41;57.08
8160;BME280;27404;52.398;9.646;2022-07-12T09:34:27;101794.78;;;22.62;56.62
8160;BME280;27404;52.398;9.646;2022-07-12T09:37:11;101792.88;;;22.98;56.83
8160;BME280;27404;52.398;9.646;2022-07-12T09:39:38;101796.28;;;23.24;54.45
8160;BME280;27404;52.398;9.646;2022-07-12T09:42:04;101800.34;;;23.37;53.14
8160;BME280;27404;52.398;9.646;2022-07-12T09:44:32;101789.84;;;23.24;53.17
8160;BME280;27404;52.398;9.646;2022-07-12T09:46:58;101792.59;;;22.94;52.75
8160;BME280;27404;52.398;9.646;2022-07-12T09:49:26;101785.56;;;22.72;53.95
8160;BME280;27404;52.398;9.646;2022-07-12T09:51:54;101790.66;;;22.60;56.45
8160;BME280;27404;52.398;9.646;2022-07-12T09:54:25;101785.09;;;22.55;56.20
8160;BME280;27404;52.398;9.646;2022-07-12T09:56:58;101784.19;;;22.65;55.02
8160;BME280;27404;52.398;9.646;2022-07-12T09:59:27;101777.25;;;22.62;57.66
8160;BME280;27404;52.398;9.646;2022-07-12T10:01:54;101789.34;;;22.42;58.00
8160;BME280;27404;52.398;9.646;2022-07-12T10:04:21;101786.28;;;22.38;56.12
8160;BME280;27404;52.398;9.646;2022-07-12T10:06:47;101784.94;;;22.36;55.56
8160;BME280;27404;52.398;9.646;2022-07-12T10:09:14;101791.03;;;22.43;56.32
8160;BME280;27404;52.398;9.646;2022-07-12T10:11:41;101785.44;;;22.48;53.24
8160;BME280;27404;52.398;9.646;2022-07-12T10:14:11;101787.56;;;22.11;50.87
8160;BME280;27404;52.398;9.646;2022-07-12T10:16:38;101782.88;;;21.96;53.89
8160;BME280;27404;52.398;9.646;2022-07-12T10:19:27;101785.38;;;22.03;53.43
8160;BME280;27404;52.398;9.646;2022-07-12T10:21:56;101782.81;;;22.17;53.46
8160;BME280;27404;52.398;9.646;2022-07-12T10:24:45;101785.94;;;22.05;53.55
8160;BME280;27404;52.398;9.646;2022-07-12T10:29:50;101783.50;;;22.38;53.36
8160;BME280;27404;52.398;9.646;2022-07-12T10:35:02;101766.94;;;22.62;50.64
8160;BME280;27404;52.398;9.646;2022-07-12T10:37:28;101770.81;;;22.67;50.57
8160;BME280;27404;52.398;9.646;2022-07-12T10:42:38;101757.38;;;23.03;53.58
8160;BME280;27404;52.398;9.646;2022-07-12T10:45:14;101760.19;;;23.03;48.97
8160;BME280;27404;52.398;9.646;2022-07-12T10:56:18;101757.78;;;23.21;46.28
8160;BME280;27404;52.398;9.646;2022-07-12T10:58:53;101755.28;;;23.19;46.43
8160;BME280;27404;52.398;9.646;2022-07-12T11:01:22;101750.75;;;23.29;46.10
8160;BME280;27404;52.398;9.646;2022-07-12T11:06:23;101748.06;;;23.18;46.96
8160;BME280;27404;52.398;9.646;2022-07-12T11:08:53;101751.88;;;23.28;46.81
8160;BME280;27404;52.398;9.646;2022-07-12T11:11:21;101749.09;;;23.28;47.94
8160;BME280;27404;52.398;9.646;2022-07-12T11:13:47;101747.09;;;23.33;48.95
8160;BME280;27404;52.398;9.646;2022-07-12T11:16:12;101745.38;;;23.38;45.35
8160;BME280;27404;52.398;9.646;2022-07-12T11:18:38;101736.63;;;23.44;45.44
8160;BME280;27404;52.398;9.646;2022-07-12T11:21:05;101737.53;;;23.40;43.52
8160;BME280;27404;52.398;9.646;2022-07-12T11:23:31;101732.06;;;23.54;44.89
8160;BME280;27404;52.398;9.646;2022-07-12T11:25:58;101737.13;;;23.51;45.30
8160;BME280;27404;52.398;9.646;2022-07-12T11:28:24;101738.31;;;23.45;44.45
8160;BME280;27404;52.398;9.646;2022-07-12T11:30:54;101728.91;;;23.36;44.65
8160;BME280;27404;52.398;9.646;2022-07-12T11:33:26;101725.72;;;23.48;45.74
8160;BME280;27404;52.398;9.646;2022-07-12T11:35:58;101727.72;;;23.66;44.26
8160;BME280;27404;52.398;9.646;2022-07-12T11:38:25;101722.78;;;23.83;43.65
8160;BME280;27404;52.398;9.646;2022-07-12T11:41:03;101720.16;;;23.91;42.80
8160;BME280;27404;52.398;9.646;2022-07-12T11:43:30;101713.97;;;23.94;42.27
8160;BME280;27404;52.398;9.646;2022-07-12T11:45:56;101704.78;;;24.13;42.15
8160;BME280;27404;52.398;9.646;2022-07-12T11:48:22;101703.56;;;24.19;42.48
8160;BME280;27404;52.398;9.646;2022-07-12T11:50:51;101704.41;;;24.20;42.19
8160;BME280;27404;52.398;9.646;2022-07-12T11:53:22;101703.66;;;24.33;42.45
8160;BME280;27404;52.398;9.646;2022-07-12T11:55:50;101698.88;;;24.34;42.38
8160;BME280;27404;52.398;9.646;2022-07-12T11:58:16;101691.50;;;24.57;42.86
8160;BME280;27404;52.398;9.646;2022-07-12T12:00:43;101692.34;;;24.91;41.53
8160;BME280;27404;52.398;9.646;2022-07-12T12:03:09;101695.28;;;24.99;41.81
8160;BME280;27404;52.398;9.646;2022-07-12T12:05:35;101691.94;;;24.97;40.13
8160;BME280;27404;52.398;9.646;2022-07-12T12:08:03;101704.81;;;24.98;40.76
8160;BME280;27404;52.398;9.646;2022-07-12T12:10:28;101696.00;;;25.05;40.74
8160;BME280;27404;52.398;9.646;2022-07-12T12:12:55;101699.13;;;25.04;40.17
8160;BME280;27404;52.398;9.646;2022-07-12T12:15:25;101702.47;;;24.87;39.55
8160;BME280;27404;52.398;9.646;2022-07-12T12:18:02;101692.34;;;24.91;39.94
8160;BME280;27404;52.398;9.646;2022-07-12T12:20:32;101694.72;;;24.83;40.24
8160;BME280;27404;52.398;9.646;2022-07-12T12:22:59;101695.38;;;24.94;39.36
8160;BME280;27404;52.398;9.646;2022-07-12T12:25:27;101699.53;;;25.11;40.90
8160;BME280;27404;52.398;9.646;2022-07-12T12:27:56;101689.69;;;24.99;39.04
8160;BME280;27404;52.398;9.646;2022-07-12T12:30:22;101694.13;;;25.01;38.81
8160;BME280;27404;52.398;9.646;2022-07-12T12:32:57;101694.44;;;24.99;38.45
8160;BME280;27404;52.398;9.646;2022-07-12T12:35:36;101698.88;;;24.86;38.52
8160;BME280;27404;52.398;9.646;2022-07-12T12:38:15;101689.25;;;24.92;39.42
8160;BME280;27404;52.398;9.646;2022-07-12T12:40:49;101681.09;;;25.10;40.02
8160;BME280;27404;52.398;9.646;2022-07-12T12:43:19;101682.66;;;25.16;39.42
8160;BME280;27404;52.398;9.646;2022-07-12T12:45:56;101690.53;;;25.28;39.27
8160;BME280;27404;52.398;9.646;2022-07-12T12:48:27;101681.63;;;25.26;40.01
8160;BME280;27404;52.398;9.646;2022-07-12T12:51:12;101666.66;;;25.31;38.42
8160;BME280;27404;52.398;9.646;2022-07-12T12:53:39;101668.97;;;25.42;39.62
8160;BME280;27404;52.398;9.646;2022-07-12T12:56:11;101664.00;;;25.39;37.89
8160;BME280;27404;52.398;9.646;2022-07-12T12:58:37;101668.22;;;25.37;37.72
8160;BME280;27404;52.398;9.646;2022-07-12T13:01:03;101668.44;;;25.26;36.51
8160;BME280;27404;52.398;9.646;2022-07-12T13:03:30;101670.72;;;25.10;36.68
8160;BME280;27404;52.398;9.646;2022-07-12T13:05:56;101659.00;;;25.22;36.31
8160;BME280;27404;52.398;9.646;2022-07-12T13:08:23;101669.53;;;25.45;35.50
8160;BME280;27404;52.398;9.646;2022-07-12T13:10:49;101663.91;;;25.45;35.87
8160;BME280;27404;52.398;9.646;2022-07-12T13:13:36;101663.47;;;25.37;34.40
8160;BME280;27404;52.398;9.646;2022-07-12T13:16:02;101666.81;;;25.53;33.60